createdAt,value
2022-11-19T00:00:07.357Z,16.15
2022-11-19T00:03:09.406Z,19.07
2022-11-19T00:06:14.488Z,21.70
2022-11-19T00:09:17.300Z,21.27
2022-11-19T00:12:38.406Z,19.50
2022-11-19T00:15:41.565Z,21.75
2022-11-19T00:18:44.054Z,19.67
2022-11-19T00:21:46.445Z,19.50
2022-11-19T00:24:48.956Z,19.98
2022-11-19T00:27:52.234Z,21.25
2022-11-19T00:30:54.747Z,21.90
2022-11-19T00:33:56.978Z,20.77
2022-11-19T00:36:59.551Z,17.02
2022-11-19T00:40:01.787Z,18.83
2022-11-19T00:43:22.632Z,20.95
2022-11-19T00:46:28.349Z,20.73
2022-11-19T00:49:30.893Z,18.60
2022-11-19T00:52:33.092Z,18.60
2022-11-19T00:55:37.540Z,18.55
2022-11-19T00:58:39.966Z,16.98
2022-11-19T01:01:42.551Z,21.15
2022-11-19T01:04:44.790Z,19.43
2022-11-19T01:07:47.230Z,17.52
2022-11-19T01:10:49.460Z,21.83
2022-11-19T01:13:53.020Z,19.67
2022-11-19T01:16:55.302Z,11.30
2022-11-19T01:19:57.851Z,26.03
2022-11-19T01:23:00.067Z,25.25
2022-11-19T01:26:02.684Z,26.77
2022-11-19T01:29:04.960Z,31.25
2022-11-19T01:32:07.430Z,22.45
2022-11-19T01:35:09.685Z,16.10
2022-11-19T01:38:12.158Z,18.27
2022-11-19T01:41:14.389Z,18.65
2022-11-19T01:44:50.829Z,24.75
2022-11-19T01:47:53.906Z,20.70
2022-11-19T01:50:58.401Z,22.97
2022-11-19T01:54:08.545Z,19.85
2022-11-19T01:57:14.592Z,21.20
2022-11-19T02:03:20.095Z,24.20
2022-11-19T02:06:22.643Z,22.60
2022-11-19T02:09:27.279Z,21.77
2022-11-19T02:13:15.226Z,24.70
2022-11-19T02:16:36.551Z,24.92
2022-11-19T02:19:56.324Z,24.58
2022-11-19T02:23:07.416Z,26.27
2022-11-19T02:26:38.197Z,25.95
2022-11-19T02:30:10.233Z,22.13
2022-11-19T02:33:35.957Z,22.83
2022-11-19T02:36:48.629Z,23.15
2022-11-19T02:40:02.617Z,23.67
2022-11-19T02:43:16.875Z,25.37
2022-11-19T02:46:19.765Z,28.40
2022-11-19T02:49:26.964Z,25.60
2022-11-19T02:52:29.583Z,27.60
2022-11-19T02:55:32.157Z,26.33
2022-11-19T02:58:57.017Z,26.65
2022-11-19T03:02:18.462Z,23.05
2022-11-19T03:05:24.773Z,26.23
2022-11-19T03:08:27.745Z,27.08
2022-11-19T03:11:32.193Z,22.50
2022-11-19T03:15:02.899Z,23.77
2022-11-19T03:18:08.590Z,24.33
2022-11-19T03:21:20.633Z,25.70
2022-11-19T03:24:36.989Z,28.33
2022-11-19T03:27:43.517Z,16.10
2022-11-19T03:30:49.389Z,17.42
2022-11-19T03:33:54.957Z,24.02
2022-11-19T03:37:01.454Z,27.77
2022-11-19T03:40:06.611Z,27.35
2022-11-19T03:43:13.540Z,15.33
2022-11-19T03:46:18.675Z,25.88
2022-11-19T03:49:27.094Z,17.58
2022-11-19T03:52:29.628Z,25.17
2022-11-19T03:55:41.229Z,24.90
2022-11-19T03:58:45.510Z,28.20
2022-11-19T04:01:50.766Z,29.70
2022-11-19T04:04:53.628Z,27.02
2022-11-19T04:07:56.021Z,23.73
2022-11-19T04:14:00.082Z,19.87
2022-11-19T04:17:02.773Z,29.15
2022-11-19T04:20:07.163Z,29.73
2022-11-19T04:23:09.813Z,33.35
2022-11-19T04:26:12.025Z,29.48
2022-11-19T04:29:14.810Z,29.43
2022-11-19T04:32:17.147Z,28.92
2022-11-19T04:35:21.977Z,29.87
2022-11-19T04:38:24.442Z,20.67
2022-11-19T04:41:26.987Z,27.50
2022-11-19T04:44:29.434Z,26.90
2022-11-19T04:47:32.024Z,32.75
2022-11-19T04:50:34.272Z,32.60
2022-11-19T04:53:36.832Z,31.35
2022-11-19T04:56:39.319Z,33.03
2022-11-19T04:59:41.849Z,29.07
2022-11-19T05:02:45.449Z,24.58
2022-11-19T05:05:47.924Z,28.67
2022-11-19T05:08:50.148Z,27.75
2022-11-19T05:11:52.628Z,31.90
2022-11-19T05:14:54.877Z,31.13
2022-11-19T05:17:57.455Z,33.53
2022-11-19T05:20:59.746Z,30.48
2022-11-19T05:24:02.285Z,30.20
2022-11-19T05:27:04.867Z,33.50
2022-11-19T05:30:08.273Z,31.17
2022-11-19T05:33:10.709Z,29.60
2022-11-19T05:36:13.451Z,32.05
2022-11-19T05:39:21.551Z,33.17
2022-11-19T05:42:24.986Z,27.35
2022-11-19T05:45:27.248Z,29.40
2022-11-19T05:48:30.251Z,32.58
2022-11-19T05:51:32.500Z,31.75
2022-11-19T05:54:35.040Z,29.55
2022-11-19T05:57:37.357Z,27.95
2022-11-19T06:00:39.910Z,30.10
2022-11-19T06:03:42.561Z,29.98
2022-11-19T06:06:44.937Z,26.80
2022-11-19T06:09:47.537Z,27.90
2022-11-19T06:12:49.749Z,29.75
2022-11-19T06:15:52.853Z,29.27
2022-11-19T06:18:55.167Z,29.23
2022-11-19T06:21:57.978Z,29.20
2022-11-19T06:25:00.185Z,29.08
2022-11-19T06:28:02.741Z,30.00
2022-11-19T06:31:05.095Z,29.53
2022-11-19T06:34:07.615Z,28.42
2022-11-19T06:37:09.871Z,29.63
2022-11-19T06:40:13.247Z,30.50
2022-11-19T06:43:15.523Z,26.95
2022-11-19T06:46:18.222Z,25.77
2022-11-19T06:49:20.668Z,32.25
2022-11-19T06:52:23.354Z,27.67
2022-11-19T06:55:25.645Z,22.70
2022-11-19T06:58:29.141Z,31.23
2022-11-19T07:01:31.407Z,30.00
2022-11-19T07:04:34.094Z,28.33
2022-11-19T07:07:36.637Z,33.15
2022-11-19T07:10:39.220Z,29.77
2022-11-19T07:14:00.094Z,31.55
2022-11-19T07:17:05.019Z,32.90
2022-11-19T07:20:08.498Z,31.40
2022-11-19T07:23:11.329Z,31.05
2022-11-19T07:26:14.195Z,33.45
2022-11-19T07:29:17.041Z,36.15
2022-11-19T07:32:19.493Z,35.33
2022-11-19T07:35:22.019Z,32.60
2022-11-19T07:38:24.343Z,33.60
2022-11-19T07:41:45.421Z,34.80
2022-11-19T07:44:50.904Z,31.05
2022-11-19T07:47:57.354Z,33.87
2022-11-19T07:50:59.530Z,33.38
2022-11-19T07:54:02.152Z,29.77
2022-11-19T07:57:04.715Z,30.95
2022-11-19T08:00:07.911Z,30.73
2022-11-19T08:03:14.574Z,35.77
2022-11-19T08:06:18.893Z,33.95
2022-11-19T08:09:21.548Z,32.47
2022-11-19T08:12:24.336Z,31.55
2022-11-19T08:15:26.687Z,31.48
2022-11-19T08:18:31.440Z,31.97
2022-11-19T08:21:34.553Z,39.90
2022-11-19T08:24:37.095Z,32.67
2022-11-19T08:27:39.341Z,33.88
2022-11-19T08:30:41.990Z,33.60
2022-11-19T08:33:44.202Z,35.23
2022-11-19T08:36:46.738Z,35.47
2022-11-19T08:39:48.968Z,38.63
2022-11-19T08:43:01.084Z,34.83
2022-11-19T08:46:03.393Z,32.50
2022-11-19T08:49:06.071Z,32.57
2022-11-19T08:52:08.674Z,33.45
2022-11-19T08:55:11.214Z,33.70
2022-11-19T08:58:13.469Z,31.87
2022-11-19T09:01:19.856Z,30.37
2022-11-19T09:04:22.696Z,37.43
2022-11-19T09:07:25.437Z,36.38
2022-11-19T09:10:28.177Z,33.55
2022-11-19T09:13:30.706Z,38.17
2022-11-19T09:16:32.934Z,34.40
2022-11-19T09:19:35.519Z,36.73
2022-11-19T09:22:38.318Z,31.60
2022-11-19T09:25:40.842Z,33.05
2022-11-19T09:28:44.033Z,35.05
2022-11-19T09:31:46.626Z,31.15
2022-11-19T09:34:48.877Z,33.13
2022-11-19T09:37:51.371Z,30.37
2022-11-19T09:40:55.374Z,28.55
2022-11-19T09:44:13.242Z,27.42
2022-11-19T09:47:27.603Z,28.95
2022-11-19T09:50:35.204Z,29.93
2022-11-19T09:53:56.525Z,30.15
2022-11-19T09:57:04.487Z,33.70
2022-11-19T10:00:08.507Z,29.23
2022-11-19T10:03:20.413Z,29.40
2022-11-19T10:06:30.096Z,27.97
2022-11-19T10:09:49.496Z,29.33
2022-11-19T10:13:12.015Z,28.75
2022-11-19T10:16:45.836Z,29.23
2022-11-19T10:20:00.292Z,29.02
2022-11-19T10:23:24.280Z,30.43
2022-11-19T10:26:40.491Z,30.60
2022-11-19T10:29:43.540Z,35.13
2022-11-19T10:33:02.116Z,28.10
2022-11-19T10:36:19.314Z,28.83
2022-11-19T10:39:24.505Z,27.13
2022-11-19T10:42:32.766Z,32.80
2022-11-19T10:45:35.446Z,32.65
2022-11-19T10:48:42.348Z,26.98
2022-11-19T10:51:45.137Z,29.25
2022-11-19T10:54:48.978Z,29.37
2022-11-19T10:58:25.362Z,32.35
2022-11-19T11:01:34.687Z,31.60
2022-11-19T11:05:16.342Z,32.75
2022-11-19T11:08:18.782Z,33.10
2022-11-19T11:11:50.512Z,34.47
2022-11-19T11:14:54.391Z,30.02
2022-11-19T11:18:09.538Z,31.00
2022-11-19T11:21:35.179Z,36.17
2022-11-19T11:24:39.138Z,34.72
2022-11-19T11:27:41.379Z,32.97
2022-11-19T11:31:05.166Z,32.28
2022-11-19T11:34:27.660Z,30.75
2022-11-19T11:37:30.335Z,32.08
2022-11-19T11:40:32.858Z,34.33
2022-11-19T11:43:39.740Z,34.60
2022-11-19T11:46:49.062Z,34.35
2022-11-19T11:50:05.230Z,31.37
2022-11-19T11:53:10.044Z,32.83
2022-11-19T11:56:12.693Z,33.25
2022-11-19T11:59:23.910Z,31.33
2022-11-19T12:02:32.874Z,35.13
2022-11-19T12:05:56.621Z,35.13
2022-11-19T12:09:46.376Z,33.33
2022-11-19T12:13:26.401Z,32.17
2022-11-19T12:16:51.492Z,33.80
2022-11-19T12:19:53.928Z,32.17
2022-11-19T12:23:25.604Z,36.58
2022-11-19T12:26:35.007Z,34.83
2022-11-19T12:29:57.307Z,36.40
2022-11-19T12:33:11.106Z,33.33
2022-11-19T12:36:31.818Z,36.55
2022-11-19T12:39:52.014Z,31.80
2022-11-19T12:43:05.152Z,35.60
2022-11-19T12:46:26.425Z,38.25
2022-11-19T12:49:54.974Z,38.83
2022-11-19T12:53:37.013Z,37.08
2022-11-19T12:56:51.539Z,38.20
2022-11-19T13:00:11.637Z,36.95
2022-11-19T13:03:24.057Z,34.42
2022-11-19T13:06:36.002Z,31.47
2022-11-19T13:09:53.210Z,35.85
2022-11-19T13:12:58.136Z,37.35
2022-11-19T13:16:07.187Z,37.83
2022-11-19T13:19:22.544Z,37.65
2022-11-19T13:22:31.786Z,32.83
2022-11-19T13:25:40.251Z,34.42
2022-11-19T13:28:47.397Z,38.75
2022-11-19T13:31:57.850Z,40.22
2022-11-19T13:35:22.558Z,36.58
2022-11-19T13:38:43.705Z,34.77
2022-11-19T13:42:10.337Z,41.22
2022-11-19T13:45:17.729Z,43.20
2022-11-19T13:48:27.576Z,37.80
2022-11-19T13:51:44.694Z,38.92
2022-11-19T13:54:47.235Z,41.07
2022-11-19T13:57:50.082Z,36.78
2022-11-19T14:01:08.102Z,38.72
2022-11-19T14:04:37.004Z,36.45
2022-11-19T14:08:09.201Z,38.67
2022-11-19T14:11:39.618Z,35.27
2022-11-19T14:15:03.155Z,38.42
2022-11-19T14:18:30.213Z,38.30
2022-11-19T14:21:54.369Z,37.97
2022-11-19T14:25:16.437Z,39.33
2022-11-19T14:28:40.778Z,38.50
2022-11-19T14:32:03.081Z,40.53
2022-11-19T14:35:07.398Z,39.28
2022-11-19T14:38:19.129Z,41.47
2022-11-19T14:41:28.704Z,38.17
2022-11-19T14:44:32.988Z,40.23
2022-11-19T14:47:39.034Z,44.67
2022-11-19T14:50:41.577Z,40.22
2022-11-19T14:54:00.819Z,38.17
2022-11-19T14:57:36.145Z,38.08
2022-11-19T15:00:41.706Z,39.63
2022-11-19T15:03:55.880Z,38.95
2022-11-19T15:07:00.042Z,37.05
2022-11-19T15:10:04.297Z,41.25
2022-11-19T15:13:25.947Z,39.45
2022-11-19T15:16:29.421Z,38.80
2022-11-19T15:20:01.511Z,40.80
2022-11-19T15:23:39.328Z,36.78
2022-11-19T15:26:55.125Z,39.42
2022-11-19T15:30:16.321Z,35.15
2022-11-19T15:33:28.363Z,37.90
2022-11-19T15:36:39.657Z,33.95
2022-11-19T15:41:33.047Z,33.65
2022-11-19T15:44:45.246Z,38.42
2022-11-19T15:47:56.104Z,36.40
2022-11-19T15:51:00.714Z,36.87
2022-11-19T15:54:05.763Z,34.35
2022-11-19T15:57:17.594Z,35.97
2022-11-19T16:00:22.319Z,37.65
2022-11-19T16:03:25.068Z,34.67
2022-11-19T16:06:29.534Z,33.93
2022-11-19T16:09:32.421Z,38.95
2022-11-19T16:12:53.618Z,38.47
2022-11-19T16:16:14.554Z,36.70
2022-11-19T16:19:18.053Z,34.38
2022-11-19T16:22:24.363Z,35.43
2022-11-19T16:25:31.164Z,36.75
2022-11-19T16:28:40.064Z,35.17
2022-11-19T16:31:42.482Z,35.60
2022-11-19T16:34:45.516Z,32.47
2022-11-19T16:37:48.974Z,33.80
2022-11-19T16:41:11.689Z,34.55
2022-11-19T16:44:18.149Z,32.55
2022-11-19T16:47:39.484Z,29.27
2022-11-19T16:50:46.527Z,33.22
2022-11-19T16:53:49.374Z,37.50
2022-11-19T16:56:51.678Z,31.77
2022-11-19T17:00:01.779Z,38.65
2022-11-19T17:03:18.205Z,35.35
2022-11-19T17:06:25.652Z,32.20
2022-11-19T17:09:47.336Z,35.50
2022-11-19T17:13:23.077Z,30.65
2022-11-19T17:16:25.921Z,37.83
2022-11-19T17:19:32.260Z,37.88
2022-11-19T17:22:36.777Z,37.38
2022-11-19T17:25:50.929Z,38.03
2022-11-19T17:29:11.725Z,38.47
2022-11-19T17:32:14.403Z,36.60
2022-11-19T17:35:52.548Z,37.45
2022-11-19T17:38:55.230Z,31.05
2022-11-19T17:42:16.054Z,33.53
2022-11-19T17:45:18.691Z,36.17
2022-11-19T17:48:23.448Z,32.15
2022-11-19T17:51:26.697Z,32.13
2022-11-19T17:54:31.629Z,32.45
2022-11-19T17:57:41.126Z,35.13
2022-11-19T18:00:45.070Z,33.45
2022-11-19T18:03:47.794Z,34.92
2022-11-19T18:06:50.023Z,33.95
2022-11-19T18:09:52.603Z,34.45
2022-11-19T18:12:55.000Z,38.07
2022-11-19T18:15:58.561Z,38.42
2022-11-19T18:19:00.959Z,41.40
2022-11-19T18:22:03.730Z,38.90
2022-11-19T18:25:20.461Z,36.75
2022-11-19T18:28:23.070Z,34.43
2022-11-19T18:31:27.923Z,37.53
2022-11-19T18:34:30.513Z,43.28
2022-11-19T18:37:32.737Z,40.92
2022-11-19T18:40:36.078Z,35.30
2022-11-19T18:43:57.151Z,36.07
2022-11-19T18:47:05.069Z,39.90
2022-11-19T18:50:11.751Z,40.80
2022-11-19T18:53:14.293Z,40.88
2022-11-19T18:56:18.137Z,39.75
2022-11-19T18:59:21.143Z,34.53
2022-11-19T19:02:23.543Z,38.00
2022-11-19T19:05:26.174Z,35.97
2022-11-19T19:08:30.178Z,34.75
2022-11-19T19:11:51.300Z,39.05
2022-11-19T19:14:54.699Z,40.57
2022-11-19T19:17:57.327Z,38.75
2022-11-19T19:20:59.668Z,37.45
2022-11-19T19:24:05.267Z,40.25
2022-11-19T19:27:07.737Z,35.55
2022-11-19T19:30:10.766Z,38.07
2022-11-19T19:33:12.984Z,35.20
2022-11-19T19:36:17.072Z,34.53
2022-11-19T19:39:19.731Z,35.60
2022-11-19T19:42:22.839Z,38.75
2022-11-19T19:45:25.435Z,35.30
2022-11-19T19:48:28.584Z,36.88
2022-11-19T19:51:31.580Z,33.75
2022-11-19T19:54:34.136Z,34.05
2022-11-19T19:57:36.699Z,35.15
2022-11-19T20:00:39.831Z,33.17
2022-11-19T20:03:43.981Z,34.83
2022-11-19T20:06:47.812Z,35.22
2022-11-19T20:09:50.347Z,35.28
2022-11-19T20:13:18.865Z,36.38
2022-11-19T20:16:24.342Z,37.17
2022-11-19T20:19:26.629Z,34.10
2022-11-19T20:22:29.674Z,36.30
2022-11-19T20:25:32.477Z,33.55
2022-11-19T20:28:35.079Z,33.67
2022-11-19T20:31:38.002Z,35.77
2022-11-19T20:34:40.535Z,36.70
2022-11-19T20:37:42.833Z,32.25
2022-11-19T20:40:55.346Z,36.72
2022-11-19T20:44:17.075Z,35.25
2022-11-19T20:47:19.880Z,32.80
2022-11-19T20:50:22.079Z,34.30
2022-11-19T20:53:24.609Z,30.42
2022-11-19T20:56:26.858Z,33.95
2022-11-19T20:59:29.664Z,29.50
2022-11-19T21:02:33.015Z,31.13
2022-11-19T21:05:35.592Z,30.42
2022-11-19T21:08:38.057Z,31.23
2022-11-19T21:11:40.656Z,31.05
2022-11-19T21:14:43.388Z,32.42
2022-11-19T21:17:46.162Z,32.43
2022-11-19T21:20:48.913Z,32.53
2022-11-19T21:23:52.204Z,26.05
2022-11-19T21:26:54.854Z,31.42
2022-11-19T21:29:57.662Z,27.13
2022-11-19T21:33:00.409Z,24.07
2022-11-19T21:36:04.364Z,28.80
2022-11-19T21:39:07.602Z,29.20
2022-11-19T21:42:10.212Z,29.77
2022-11-19T21:45:12.457Z,29.00
2022-11-19T21:48:15.580Z,30.87
2022-11-19T21:51:23.058Z,27.17
2022-11-19T21:54:27.318Z,26.85
2022-11-19T21:57:29.861Z,26.90
2022-11-19T22:00:33.899Z,25.70
2022-11-19T22:03:36.686Z,29.07
2022-11-19T22:06:39.734Z,29.27
2022-11-19T22:09:42.287Z,27.35
2022-11-19T22:12:45.250Z,27.45
2022-11-19T22:15:47.754Z,23.38
2022-11-19T22:18:50.128Z,23.33
2022-11-19T22:21:52.723Z,23.40
2022-11-19T22:24:54.961Z,23.87
2022-11-19T22:27:57.499Z,19.98
2022-11-19T22:31:00.264Z,30.20
2022-11-19T22:34:02.810Z,24.67
2022-11-19T22:37:06.291Z,28.85
2022-11-19T22:40:09.697Z,24.92
2022-11-19T22:43:11.927Z,30.33
2022-11-19T22:46:15.066Z,26.25
2022-11-19T22:49:17.332Z,27.87
2022-11-19T22:52:19.880Z,29.83
2022-11-19T22:55:22.134Z,28.05
2022-11-19T22:58:24.679Z,24.83
2022-11-19T23:01:32.944Z,28.58
2022-11-19T23:04:37.538Z,28.33
2022-11-19T23:07:39.819Z,28.23
2022-11-19T23:10:42.450Z,28.48
2022-11-19T23:13:44.735Z,27.15
2022-11-19T23:16:47.299Z,23.83
2022-11-19T23:19:49.577Z,25.63
2022-11-19T23:22:52.077Z,24.48
2022-11-19T23:25:58.182Z,25.73
2022-11-19T23:29:02.437Z,24.52
2022-11-19T23:32:06.296Z,23.08
2022-11-19T23:35:08.998Z,24.03
2022-11-19T23:38:11.658Z,24.83
2022-11-19T23:41:16.562Z,25.37
2022-11-19T23:44:18.813Z,26.67
2022-11-19T23:47:21.282Z,26.60
2022-11-19T23:50:23.452Z,29.77
2022-11-19T23:53:25.947Z,31.58
2022-11-19T23:56:30.755Z,28.38
2022-11-19T23:59:35.531Z,27.00
